createdAt,value
2019-05-02T00:00:03.548Z,107.3
2019-05-02T00:01:03.541Z,106.8
2019-05-02T00:02:03.179Z,105.4
2019-05-02T00:03:05.999Z,105.2
2019-05-02T00:04:03.294Z,105.2
2019-05-02T00:05:03.345Z,103.6
2019-05-02T00:06:09.489Z,103.6
2019-05-02T00:07:03.234Z,102.9
2019-05-02T00:08:03.710Z,102.9
2019-05-02T00:09:11.326Z,102.4
2019-05-02T00:10:03.478Z,102.4
2019-05-02T00:11:02.906Z,102.2
2019-05-02T00:12:02.988Z,101.7
2019-05-02T00:13:03.090Z,101.7
2019-05-02T00:14:03.790Z,102.9
2019-05-02T00:15:03.782Z,102.9
2019-05-02T00:16:02.847Z,102.6
2019-05-02T00:17:03.918Z,102.6
2019-05-02T00:18:03.632Z,101
2019-05-02T00:19:03.890Z,101.7
2019-05-02T00:20:03.948Z,101.5
2019-05-02T00:21:03.529Z,101.5
2019-05-02T00:22:03.582Z,101
2019-05-02T00:23:03.386Z,100.8
2019-05-02T00:24:04.442Z,100.3
2019-05-02T00:25:03.759Z,100.3
2019-05-02T00:26:03.712Z,98.9
2019-05-02T00:27:03.454Z,98.2
2019-05-02T00:28:12.539Z,98.2
2019-05-02T00:30:03.538Z,96.8
2019-05-02T00:31:13.021Z,96.1
2019-05-02T00:32:03.279Z,96.1
2019-05-02T00:33:03.265Z,94.9
2019-05-02T00:34:03.090Z,94.9
2019-05-02T00:35:03.268Z,94.5
2019-05-02T00:36:02.788Z,93.1
2019-05-02T00:37:03.598Z,92.4
2019-05-02T00:38:04.093Z,92.4
2019-05-02T00:39:03.313Z,90
2019-05-02T00:40:03.232Z,87.7
2019-05-02T00:41:04.010Z,87.7
2019-05-02T00:42:23.801Z,91.9
2019-05-02T00:44:12.424Z,92.4
2019-05-02T00:45:03.026Z,92.4
2019-05-02T00:46:02.978Z,93.3
2019-05-02T00:47:12.181Z,94
2019-05-02T00:48:02.927Z,94
2019-05-02T00:49:03.749Z,94
2019-05-02T00:50:12.763Z,94
2019-05-02T00:51:03.395Z,97
2019-05-02T00:52:03.757Z,97
2019-05-02T00:53:13.669Z,100.5
2019-05-02T00:55:03.558Z,98.2
2019-05-02T00:56:10.507Z,98.2
2019-05-02T00:57:03.298Z,96.6
2019-05-02T00:58:03.499Z,96.6
2019-05-02T00:59:09.021Z,96.1
2019-05-02T01:00:03.139Z,97
2019-05-02T01:01:03.907Z,97.7
2019-05-02T01:02:07.394Z,97.7
2019-05-02T01:03:02.980Z,98.4
2019-05-02T01:04:03.302Z,98.4
2019-05-02T01:05:04.799Z,98.4
2019-05-02T01:06:03.018Z,101
2019-05-02T01:07:03.768Z,101.2
2019-05-02T01:08:03.282Z,100.5
2019-05-02T01:09:13.081Z,100.5
2019-05-02T01:10:03.023Z,99.8
2019-05-02T01:11:03.320Z,99.4
2019-05-02T01:12:10.162Z,101.2
2019-05-02T01:13:03.985Z,101.2
2019-05-02T01:14:03.888Z,102.9
2019-05-02T01:15:09.909Z,102.4
2019-05-02T01:16:03.476Z,102.4
2019-05-02T01:17:03.591Z,100.5
2019-05-02T01:18:08.194Z,101.7
2019-05-02T01:19:03.275Z,102.6
2019-05-02T01:20:03.302Z,102.6
2019-05-02T01:21:04.387Z,104.3
2019-05-02T01:22:03.492Z,104.3
2019-05-02T01:23:03.281Z,105
2019-05-02T01:24:04.597Z,105
2019-05-02T01:25:03.332Z,105.4
2019-05-02T01:26:03.209Z,105.4
2019-05-02T01:27:06.723Z,104.5
2019-05-02T01:28:03.206Z,106.6
2019-05-02T01:29:02.971Z,106.6
2019-05-02T01:30:07.620Z,106.1
2019-05-02T01:31:03.915Z,107.3
2019-05-02T01:32:02.985Z,107.5
2019-05-02T01:33:07.930Z,107.5
2019-05-02T01:34:03.033Z,108
2019-05-02T01:35:03.771Z,108.9
2019-05-02T01:36:08.409Z,109.6
2019-05-02T01:37:02.996Z,109.6
2019-05-02T01:38:03.527Z,111.5
2019-05-02T01:39:08.949Z,111.7
2019-05-02T01:40:03.848Z,111.7
2019-05-02T01:41:03.782Z,107.8
2019-05-02T01:42:05.577Z,107.5
2019-05-02T01:43:03.632Z,106.6
2019-05-02T01:44:03.548Z,106.6
2019-05-02T01:45:12.725Z,105.9
2019-05-02T01:46:03.735Z,105.9
2019-05-02T01:47:03.570Z,106.4
2019-05-02T01:48:11.110Z,106.4
2019-05-02T01:49:03.167Z,108
2019-05-02T01:50:03.593Z,108
2019-05-02T01:51:12.279Z,106.1
2019-05-02T01:52:03.313Z,103.8
2019-05-02T01:53:03.267Z,103.8
2019-05-02T01:54:11.563Z,105.7
2019-05-02T01:55:03.283Z,105.7
2019-05-02T01:56:03.242Z,105.7
2019-05-02T01:57:10.204Z,108.7
2019-05-02T01:58:03.025Z,109.6
2019-05-02T01:59:03.743Z,108.2
2019-05-02T02:00:11.601Z,106.8
2019-05-02T02:01:02.827Z,106.8
2019-05-02T02:02:03.825Z,105.9
2019-05-02T02:03:10.565Z,107.5
2019-05-02T02:04:03.580Z,107.3
2019-05-02T02:05:03.835Z,106.8
2019-05-02T02:06:10.369Z,106.1
2019-05-02T02:07:03.685Z,106.1
2019-05-02T02:08:03.931Z,106.1
2019-05-02T02:09:10.112Z,108.2
2019-05-02T02:10:03.781Z,108.2
2019-05-02T02:11:03.312Z,107.1
2019-05-02T02:12:11.565Z,107.1
2019-05-02T02:13:05.558Z,102.4
2019-05-02T02:14:18.990Z,102.4
2019-05-02T02:16:06.233Z,103.3
2019-05-02T02:17:03.190Z,103.3
2019-05-02T02:18:03.164Z,103.1
2019-05-02T02:19:05.568Z,103.1
2019-05-02T02:20:03.215Z,102.2
2019-05-02T02:21:03.099Z,102.2
2019-05-02T02:22:04.631Z,103.1
2019-05-02T02:23:03.863Z,103.8
2019-05-02T02:24:03.062Z,104
2019-05-02T02:25:03.167Z,104
2019-05-02T02:26:14.042Z,104.3
2019-05-02T02:28:03.454Z,105.2
2019-05-02T02:29:09.537Z,104.3
2019-05-02T02:30:03.833Z,104.3
2019-05-02T02:31:08.182Z,102.2
2019-05-02T02:32:03.928Z,102.2
2019-05-02T02:33:10.281Z,101.5
2019-05-02T02:34:03.871Z,101.5
2019-05-02T02:35:12.902Z,98.9
2019-05-02T02:36:03.635Z,98.9
2019-05-02T02:37:15.428Z,98.2
2019-05-02T02:38:03.896Z,98.2
2019-05-02T02:39:17.284Z,100.5
2019-05-02T02:40:03.809Z,100.3
2019-05-02T02:41:15.400Z,100.3
2019-05-02T02:43:35.222Z,99.4
2019-05-02T02:45:03.813Z,101.9
2019-05-02T02:46:03.382Z,101.9
2019-05-02T02:47:03.095Z,101.2
2019-05-02T02:48:03.193Z,99.8
2019-05-02T02:49:03.330Z,99.8
2019-05-02T02:50:05.803Z,96.6
2019-05-02T02:51:03.000Z,96.6
2019-05-02T02:52:07.195Z,96.6
2019-05-02T02:53:03.506Z,96.1
2019-05-02T02:54:06.235Z,97.5
2019-05-02T02:55:04.128Z,94.5
2019-05-02T02:56:04.424Z,94.5
2019-05-02T02:57:03.719Z,93.1
2019-05-02T02:58:06.850Z,93.1
2019-05-02T02:59:03.600Z,95.4
2019-05-02T03:00:11.619Z,95.4
2019-05-02T03:01:03.667Z,95.9
2019-05-02T03:02:12.649Z,97.7
2019-05-02T03:03:03.617Z,96.1
2019-05-02T03:04:12.590Z,96.3
2019-05-02T03:05:03.358Z,96.3
2019-05-02T03:06:08.788Z,96.8
2019-05-02T03:07:03.538Z,96.8
2019-05-02T03:08:07.569Z,98
2019-05-02T03:09:03.301Z,98
2019-05-02T03:10:08.939Z,98.7
2019-05-02T03:11:03.297Z,99.1
2019-05-02T03:12:04.960Z,101.2
2019-05-02T03:13:03.165Z,101.2
2019-05-02T03:14:10.117Z,103.1
2019-05-02T03:15:02.765Z,103.1
2019-05-02T03:16:09.679Z,101.7
2019-05-02T03:17:03.207Z,101.7
2019-05-02T03:18:04.080Z,99.8
2019-05-02T03:19:03.733Z,98.9
2019-05-02T03:20:04.207Z,98.9
2019-05-02T03:21:03.657Z,96.1
2019-05-02T03:22:04.450Z,96.1
2019-05-02T03:23:03.873Z,95.9
2019-05-02T03:24:06.342Z,95.9
2019-05-02T03:25:04.055Z,94
2019-05-02T03:26:17.467Z,94
2019-05-02T03:28:03.444Z,93.3
2019-05-02T03:29:03.814Z,93.3
2019-05-02T03:30:03.760Z,93.5
2019-05-02T03:31:31.748Z,93.5
2019-05-02T03:32:36.729Z,94.2
2019-05-02T03:34:03.507Z,97.3
2019-05-02T03:35:03.580Z,98.4
2019-05-02T03:36:03.138Z,98.4
2019-05-02T03:37:14.383Z,98.4
2019-05-02T03:38:03.218Z,98.9
2019-05-02T03:39:17.779Z,98.9
2019-05-02T03:40:04.115Z,97.5
2019-05-02T03:41:03.170Z,100.8
2019-05-02T03:42:05.430Z,100.8
2019-05-02T03:43:03.797Z,99.4
2019-05-02T03:44:26.748Z,99.4
2019-05-02T03:46:03.027Z,96.1
2019-05-02T03:47:05.469Z,95.6
2019-05-02T03:48:03.958Z,95.6
2019-05-02T03:49:10.239Z,97.3
2019-05-02T03:50:03.872Z,97.3
2019-05-02T03:51:25.329Z,98.2
2019-05-02T03:53:03.539Z,99.1
2019-05-02T03:54:10.822Z,100.3
2019-05-02T03:55:03.602Z,100.3
2019-05-02T03:56:14.416Z,100.3
2019-05-02T03:57:03.545Z,101.5
2019-05-02T03:58:17.600Z,102.6
2019-05-02T04:00:03.380Z,102.4
2019-05-02T04:01:04.254Z,102.4
2019-05-02T04:02:03.286Z,103.3
2019-05-02T04:03:02.970Z,104.3
2019-05-02T04:04:02.815Z,104.3
2019-05-02T04:05:04.134Z,102.9
2019-05-02T04:06:04.121Z,102.2
2019-05-02T04:07:03.782Z,102.4
2019-05-02T04:08:02.841Z,102.4
2019-05-02T04:09:03.773Z,101.2
2019-05-02T04:10:04.005Z,101
2019-05-02T04:11:03.092Z,100.3
2019-05-02T04:12:03.179Z,100.3
2019-05-02T04:13:03.747Z,98.7
2019-05-02T04:14:38.859Z,97.3
2019-05-02T04:16:17.922Z,98.7
2019-05-02T04:18:18.070Z,99.8
2019-05-02T04:19:03.748Z,99.8
2019-05-02T04:20:13.117Z,100.8
2019-05-02T04:21:03.702Z,100.8
2019-05-02T04:22:12.656Z,100.3
2019-05-02T04:23:03.640Z,97.5
2019-05-02T04:24:16.420Z,98.9
2019-05-02T04:25:06.811Z,98.4
2019-05-02T04:26:14.696Z,98.4
2019-05-02T04:28:14.539Z,97.7
2019-05-02T04:29:03.185Z,98.7
2019-05-02T04:30:14.701Z,98.9
2019-05-02T04:32:14.971Z,98.2
2019-05-02T04:33:03.161Z,97.7
2019-05-02T04:34:18.335Z,97.3
2019-05-02T04:36:18.214Z,97.5
2019-05-02T04:37:04.504Z,98.2
2019-05-02T04:38:48.585Z,97.3
2019-05-02T04:39:22.082Z,97.3
2019-05-02T04:40:12.781Z,97.5
2019-05-02T04:41:03.610Z,97.5
2019-05-02T04:42:23.695Z,97.5
2019-05-02T04:43:11.978Z,97.5
2019-05-02T04:44:02.172Z,99.1
2019-05-02T04:45:57.123Z,100.1
2019-05-02T04:47:22.430Z,101.2
2019-05-02T04:48:04.579Z,101.7
2019-05-02T04:49:03.295Z,101
2019-05-02T04:50:26.275Z,101
2019-05-02T04:51:20.906Z,100.1
2019-05-02T04:52:21.244Z,100.1
2019-05-02T04:54:03.111Z,98
2019-05-02T04:55:33.768Z,98
2019-05-02T04:57:03.125Z,96.3
2019-05-02T04:58:02.948Z,96.1
2019-05-02T04:59:23.260Z,96.1
2019-05-02T05:00:12.345Z,96.3
2019-05-02T05:01:03.733Z,94.2
2019-05-02T05:02:02.965Z,94.2
2019-05-02T05:03:21.410Z,93.3
2019-05-02T05:04:03.673Z,92.8
2019-05-02T05:05:03.797Z,92.4
2019-05-02T05:06:12.750Z,92.4
2019-05-02T05:07:04.011Z,92.4
2019-05-02T05:08:03.759Z,89.6
2019-05-02T05:09:15.249Z,89.8
2019-05-02T05:10:03.952Z,89.8
2019-05-02T05:11:03.876Z,90.3
2019-05-02T05:12:03.578Z,89.6
2019-05-02T05:13:03.661Z,89.6
2019-05-02T05:14:03.540Z,88.9
2019-05-02T05:15:03.355Z,86.8
2019-05-02T05:16:18.824Z,86.5
2019-05-02T05:17:03.566Z,86.5
2019-05-02T05:18:14.752Z,86.5
2019-05-02T05:19:03.413Z,86.5
2019-05-02T05:20:17.795Z,87.7
2019-05-02T05:22:12.214Z,88.2
2019-05-02T05:23:03.385Z,88.2
2019-05-02T05:24:03.025Z,88.4
2019-05-02T05:25:03.097Z,88.9
2019-05-02T05:26:07.576Z,88.9
2019-05-02T05:27:03.148Z,88.4
2019-05-02T05:28:09.405Z,88.4
2019-05-02T05:29:03.205Z,86.8
2019-05-02T05:30:18.928Z,86.8
2019-05-02T05:32:10.447Z,88.9
2019-05-02T05:33:02.881Z,88.9
2019-05-02T05:34:03.212Z,88.9
2019-05-02T05:35:13.315Z,87.7
2019-05-02T05:36:03.513Z,86.8
2019-05-02T05:37:13.719Z,86.8
2019-05-02T05:38:03.690Z,86.8
2019-05-02T05:39:11.963Z,85.4
2019-05-02T05:40:03.463Z,85.1
2019-05-02T05:41:23.291Z,85.1
2019-05-02T05:42:03.766Z,85.1
2019-05-02T05:43:20.783Z,85.6
2019-05-02T05:45:14.217Z,86.8
2019-05-02T05:46:13.458Z,85.4
2019-05-02T05:47:03.657Z,86.3
2019-05-02T05:48:03.503Z,86.3
2019-05-02T05:49:03.477Z,87.5
2019-05-02T05:50:03.482Z,87.5
2019-05-02T05:51:03.373Z,89.3
2019-05-02T05:52:04.283Z,89.3
2019-05-02T05:53:03.262Z,91.2
2019-05-02T05:54:03.557Z,91.2
2019-05-02T05:55:05.318Z,91
2019-05-02T05:56:03.336Z,91
2019-05-02T05:57:03.149Z,91
2019-05-02T05:58:18.947Z,91
2019-05-02T06:00:23.457Z,90
2019-05-02T06:02:14.895Z,91.9
2019-05-02T06:03:14.391Z,92.1
2019-05-02T06:04:03.789Z,91.9
2019-05-02T06:05:04.129Z,91.9
2019-05-02T06:06:03.800Z,93.8
2019-05-02T06:07:03.567Z,93.5
2019-05-02T06:08:03.021Z,94
2019-05-02T06:09:03.875Z,94
2019-05-02T06:10:10.126Z,94.2
2019-05-02T06:11:03.452Z,93.8
2019-05-02T06:12:04.245Z,93.8
2019-05-02T06:13:13.071Z,95.9
2019-05-02T06:14:03.267Z,95.6
2019-05-02T06:15:04.049Z,97
2019-05-02T06:16:03.995Z,97
2019-05-02T06:17:03.535Z,97.3
2019-05-02T06:18:06.379Z,97.3
2019-05-02T06:19:03.384Z,97.5
2019-05-02T06:20:03.371Z,96.8
2019-05-02T06:21:10.961Z,96.8
2019-05-02T06:22:03.284Z,97
2019-05-02T06:23:03.251Z,97
2019-05-02T06:24:03.079Z,98.4
2019-05-02T06:25:10.501Z,98.4
2019-05-02T06:26:16.078Z,99.6
2019-05-02T06:28:07.130Z,100.5
2019-05-02T06:29:03.224Z,100.5
2019-05-02T06:30:03.836Z,100.8
2019-05-02T06:31:08.885Z,102.4
2019-05-02T06:32:03.912Z,102.4
2019-05-02T06:33:03.935Z,101.7
2019-05-02T06:34:08.574Z,101
2019-05-02T06:35:03.936Z,101.2
2019-05-02T06:36:03.692Z,101.2
2019-05-02T06:37:03.454Z,102.2
2019-05-02T06:38:03.257Z,101.2
2019-05-02T06:39:03.438Z,101.2
2019-05-02T06:40:09.682Z,101
2019-05-02T06:41:03.364Z,101.5
2019-05-02T06:42:03.464Z,101.9
2019-05-02T06:43:11.551Z,101.9
2019-05-02T06:44:03.384Z,100.8
2019-05-02T06:45:03.147Z,100.1
2019-05-02T06:46:29.505Z,100.3
2019-05-02T06:48:03.525Z,100.3
2019-05-02T06:49:03.315Z,100.1
2019-05-02T06:50:03.704Z,100.3
2019-05-02T06:51:03.463Z,99.1
2019-05-02T06:52:03.140Z,99.1
2019-05-02T06:53:11.364Z,98.2
2019-05-02T06:54:02.941Z,98.2
2019-05-02T06:55:03.211Z,98
2019-05-02T06:56:03.378Z,98
2019-05-02T06:57:03.318Z,97.5
2019-05-02T06:58:08.575Z,96.3
2019-05-02T06:59:03.315Z,96.3
2019-05-02T07:00:03.168Z,97.3
2019-05-02T07:01:03.130Z,96.8
2019-05-02T07:02:02.890Z,97.5
2019-05-02T07:03:11.829Z,97.5
2019-05-02T07:04:04.707Z,96.8
2019-05-02T07:05:04.170Z,97.5
2019-05-02T07:06:08.004Z,97.7
2019-05-02T07:07:04.307Z,97.7
2019-05-02T07:08:14.536Z,98.7
2019-05-02T07:09:04.060Z,98.4
2019-05-02T07:10:03.707Z,98.4
2019-05-02T07:11:03.655Z,98.7
2019-05-02T07:12:03.482Z,99.6
2019-05-02T07:13:15.644Z,99.6
2019-05-02T07:14:23.872Z,100.1
2019-05-02T07:16:03.876Z,99.8
2019-05-02T07:17:06.163Z,100.1
2019-05-02T07:18:12.392Z,100.1
2019-05-02T07:19:03.446Z,100.8
2019-05-02T07:20:05.605Z,101.9
2019-05-02T07:21:03.549Z,101.9
2019-05-02T07:22:04.797Z,103.6
2019-05-02T07:23:03.295Z,101.9
2019-05-02T07:24:03.084Z,101.9
2019-05-02T07:25:09.127Z,101.9
2019-05-02T07:26:02.856Z,102.4
2019-05-02T07:27:03.529Z,102.4
2019-05-02T07:28:10.967Z,102.6
2019-05-02T07:29:03.047Z,102.2
2019-05-02T07:30:02.903Z,102.9
2019-05-02T07:31:14.038Z,101
2019-05-02T07:32:03.907Z,101
2019-05-02T07:33:03.664Z,98.9
2019-05-02T07:34:02.999Z,98.9
2019-05-02T07:35:03.730Z,97.3
2019-05-02T07:36:03.754Z,96.8
2019-05-02T07:37:14.121Z,95.4
2019-05-02T07:38:04.087Z,95.4
2019-05-02T07:39:06.592Z,95.9
2019-05-02T07:40:03.414Z,96.6
2019-05-02T07:41:03.530Z,96.6
2019-05-02T07:42:08.142Z,96.1
2019-05-02T07:43:03.627Z,96.3
2019-05-02T07:44:04.666Z,97
2019-05-02T07:45:10.962Z,97
2019-05-02T07:46:03.408Z,97
2019-05-02T07:47:04.943Z,96.8
2019-05-02T07:48:03.407Z,97.3
2019-05-02T07:49:03.588Z,97.3
2019-05-02T07:50:12.136Z,97.7
2019-05-02T07:51:03.462Z,98.2
2019-05-02T07:52:03.216Z,98.2
2019-05-02T07:53:14.526Z,98.9
2019-05-02T07:54:03.154Z,98.9
2019-05-02T07:55:10.382Z,98.7
2019-05-02T07:56:03.378Z,98.7
2019-05-02T07:57:03.436Z,98.7
2019-05-02T07:58:08.529Z,98.7
2019-05-02T07:59:03.142Z,99.8
2019-05-02T08:00:03.759Z,101.5
2019-05-02T08:01:02.644Z,100.3
2019-05-02T08:02:04.449Z,100.3
2019-05-02T08:03:05.395Z,98.9
2019-05-02T08:04:13.117Z,99.8
2019-05-02T08:05:03.989Z,99.8
2019-05-02T08:06:03.938Z,97.5
2019-05-02T08:07:03.316Z,96.8
2019-05-02T08:08:03.703Z,96.8
2019-05-02T08:09:09.474Z,97.7
2019-05-02T08:10:03.888Z,98.2
2019-05-02T08:11:03.524Z,98
2019-05-02T08:12:03.733Z,98
2019-05-02T08:13:03.573Z,95.9
2019-05-02T08:14:03.317Z,95.9
2019-05-02T08:15:15.431Z,95.4
2019-05-02T08:16:03.374Z,95.4
2019-05-02T08:17:19.434Z,95.4
2019-05-02T08:19:07.050Z,94.5
2019-05-02T08:20:13.437Z,94
2019-05-02T08:22:15.123Z,90.7
2019-05-02T08:23:03.140Z,90.7
2019-05-02T08:24:03.972Z,91.7
2019-05-02T08:25:03.802Z,91.7
2019-05-02T08:26:03.351Z,91.2
2019-05-02T08:27:03.165Z,91.2
2019-05-02T08:28:16.080Z,90.5
2019-05-02T08:29:03.139Z,90.5
2019-05-02T08:30:06.152Z,91
2019-05-02T08:31:03.793Z,92.6
2019-05-02T08:32:03.045Z,92.6
2019-05-02T08:33:03.721Z,94.7
2019-05-02T08:34:16.345Z,94.7
2019-05-02T08:35:03.715Z,95.9
2019-05-02T08:36:03.779Z,95.9
2019-05-02T08:37:05.279Z,97.7
2019-05-02T08:38:03.626Z,99.1
2019-05-02T08:39:03.268Z,100.1
2019-05-02T08:40:12.216Z,100.1
2019-05-02T08:41:03.634Z,100.1
2019-05-02T08:42:03.131Z,98.9
2019-05-02T08:43:11.137Z,98.9
2019-05-02T08:44:03.287Z,98
2019-05-02T08:45:03.451Z,98
2019-05-02T08:46:03.116Z,97.3
2019-05-02T08:47:03.162Z,97.3
2019-05-02T08:48:06.865Z,96.6
2019-05-02T08:49:02.706Z,96.3
2019-05-02T08:50:02.958Z,96.1
2019-05-02T08:51:03.765Z,96.1
2019-05-02T08:52:03.745Z,95.9
2019-05-02T08:53:03.533Z,95.4
2019-05-02T08:54:03.906Z,95.4
2019-05-02T08:55:11.237Z,95.6
2019-05-02T08:56:03.543Z,95.4
2019-05-02T08:57:03.542Z,96.1
2019-05-02T08:58:16.282Z,96.1
2019-05-02T09:00:03.917Z,97.3
2019-05-02T09:01:03.167Z,98.4
2019-05-02T09:02:03.831Z,99.8
2019-05-02T09:03:05.048Z,99.8
2019-05-02T09:04:03.183Z,101.7
2019-05-02T09:05:06.292Z,101.7
2019-05-02T09:06:06.718Z,103.8
2019-05-02T09:07:03.543Z,103.8
2019-05-02T09:08:03.006Z,104.7
2019-05-02T09:09:03.095Z,105.4
2019-05-02T09:10:08.075Z,104.3
2019-05-02T09:11:02.862Z,104.3
2019-05-02T09:12:15.414Z,104.3
2019-05-02T09:14:02.936Z,105
2019-05-02T09:15:03.018Z,105.7
2019-05-02T09:16:06.324Z,105.9
2019-05-02T09:17:16.872Z,105.9
2019-05-02T09:18:03.997Z,105.9
2019-05-02T09:19:03.341Z,106.4
2019-05-02T09:20:23.818Z,106.4
2019-05-02T09:22:16.980Z,106.1
2019-05-02T09:23:03.502Z,104.7
2019-05-02T09:24:03.665Z,105
2019-05-02T09:25:03.375Z,105
2019-05-02T09:26:03.283Z,105.4
2019-05-02T09:27:03.817Z,105.4
2019-05-02T09:28:03.570Z,105.9
2019-05-02T09:29:05.830Z,105.9
2019-05-02T09:30:03.415Z,106.8
2019-05-02T09:31:07.270Z,106.8
2019-05-02T09:32:03.153Z,106.4
2019-05-02T09:33:07.025Z,105.7
2019-05-02T09:34:03.083Z,105.9
2019-05-02T09:35:06.603Z,106.1
2019-05-02T09:36:03.167Z,106.1
2019-05-02T09:37:03.040Z,105.2
2019-05-02T09:38:02.783Z,105.2
2019-05-02T09:39:03.174Z,103.8
2019-05-02T09:40:17.031Z,105.2
2019-05-02T09:41:22.258Z,105.2
2019-05-02T09:42:19.094Z,104.7
2019-05-02T09:43:05.125Z,108
2019-05-02T09:44:03.647Z,107.1
2019-05-02T09:45:03.808Z,107.1
2019-05-02T09:46:16.835Z,107.1
2019-05-02T09:47:03.758Z,107.8
2019-05-02T09:48:08.579Z,108.2
2019-05-02T09:49:16.765Z,108.2
2019-05-02T09:50:03.926Z,110.1
2019-05-02T09:51:17.763Z,111
2019-05-02T09:53:03.631Z,108.9
2019-05-02T09:54:06.665Z,111.3
2019-05-02T09:55:03.584Z,110.6
2019-05-02T09:56:03.537Z,110.6
2019-05-02T09:57:03.147Z,111.5
2019-05-02T09:58:03.053Z,110.6
2019-05-02T09:59:33.314Z,111
2019-05-02T10:01:03.167Z,110.8
2019-05-02T10:02:03.265Z,110.8
2019-05-02T10:03:03.438Z,108.9
2019-05-02T10:04:03.409Z,108.9
2019-05-02T10:05:03.546Z,108.9
2019-05-02T10:06:03.584Z,107.3
2019-05-02T10:07:03.412Z,107.3
2019-05-02T10:08:14.209Z,105.4
2019-05-02T10:10:06.949Z,105.9
2019-05-02T10:11:03.954Z,106.6
2019-05-02T10:12:02.961Z,107.3
2019-05-02T10:13:03.110Z,107.3
2019-05-02T10:14:03.032Z,106.1
2019-05-02T10:15:04.045Z,106.6
2019-05-02T10:16:02.814Z,106.6
2019-05-02T10:17:08.116Z,106.6
2019-05-02T10:18:19.480Z,105.7
2019-05-02T10:19:13.784Z,105.7
2019-05-02T10:21:17.322Z,106.4
2019-05-02T10:23:03.694Z,107.8
2019-05-02T10:24:04.089Z,108
2019-05-02T10:25:04.043Z,107.8
2019-05-02T10:26:03.940Z,105.9
2019-05-02T10:27:08.857Z,105.9
2019-05-02T10:28:03.641Z,103.6
2019-05-02T10:29:03.760Z,103.6
2019-05-02T10:30:16.186Z,101.7
2019-05-02T10:32:16.925Z,101.5
2019-05-02T10:33:03.681Z,101.5
2019-05-02T10:34:03.544Z,101.2
2019-05-02T10:35:03.492Z,103.1
2019-05-02T10:36:03.396Z,103.1
2019-05-02T10:37:03.483Z,103.1
2019-05-02T10:38:03.450Z,103.1
2019-05-02T10:39:03.249Z,103.1
2019-05-02T10:40:17.280Z,103.1
2019-05-02T10:41:05.125Z,98.2
2019-05-02T10:42:03.078Z,98.2
2019-05-02T10:43:03.177Z,97.7
2019-05-02T10:44:03.276Z,97.7
2019-05-02T10:45:16.791Z,98.4
2019-05-02T10:46:03.642Z,98.9
2019-05-02T10:47:03.675Z,98.9
2019-05-02T10:48:03.135Z,98.9
2019-05-02T10:49:03.100Z,98.2
2019-05-02T10:50:03.618Z,95.4
2019-05-02T10:51:03.584Z,95.4
2019-05-02T10:52:03.646Z,93.1
2019-05-02T10:53:15.958Z,94.2
2019-05-02T10:54:03.675Z,94.2
2019-05-02T10:55:03.788Z,94.2
2019-05-02T10:56:03.511Z,94.2
2019-05-02T10:57:03.391Z,93.5
2019-05-02T10:58:35.946Z,93.5
2019-05-02T11:00:03.530Z,91.7
2019-05-02T11:01:03.537Z,91.4
2019-05-02T11:02:03.710Z,91.4
2019-05-02T11:03:03.049Z,92.6
2019-05-02T11:04:03.480Z,92.6
2019-05-02T11:05:03.233Z,92.1
2019-05-02T11:06:08.067Z,92.6
2019-05-02T11:07:02.983Z,92.6
2019-05-02T11:08:06.732Z,92.6
2019-05-02T11:09:06.663Z,92.6
2019-05-02T11:10:07.161Z,91.4
2019-05-02T11:11:06.591Z,91.4
2019-05-02T11:12:02.955Z,93.1
2019-05-02T11:13:03.932Z,92.6
2019-05-02T11:14:06.172Z,93.3
2019-05-02T11:15:03.014Z,93.3
2019-05-02T11:16:03.684Z,93.3
2019-05-02T11:17:03.555Z,92.1
2019-05-02T11:18:03.744Z,92.1
2019-05-02T11:19:03.550Z,91
2019-05-02T11:20:03.455Z,92.6
2019-05-02T11:21:08.540Z,92.1
2019-05-02T11:22:03.663Z,92.1
2019-05-02T11:23:03.514Z,91.7
2019-05-02T11:24:03.283Z,91.2
2019-05-02T11:25:03.825Z,91.2
2019-05-02T11:26:03.622Z,91.7
2019-05-02T11:27:03.325Z,92.6
2019-05-02T11:28:07.449Z,94
2019-05-02T11:29:03.563Z,94
2019-05-02T11:30:03.467Z,95.4
2019-05-02T11:31:12.573Z,95.4
2019-05-02T11:32:03.256Z,93.3
2019-05-02T11:33:03.449Z,93.3
2019-05-02T11:34:03.306Z,92.4
2019-05-02T11:35:03.506Z,91.2
2019-05-02T11:36:03.320Z,90.7
2019-05-02T11:37:03.020Z,91
2019-05-02T11:38:03.070Z,91
2019-05-02T11:39:50.265Z,91
2019-05-02T11:41:03.867Z,92.1
2019-05-02T11:42:03.017Z,92.1
2019-05-02T11:43:07.100Z,93.1
2019-05-02T11:44:13.492Z,93.8
2019-05-02T11:45:03.783Z,93.8
2019-05-02T11:46:07.589Z,94.5
2019-05-02T11:47:03.647Z,94.5
2019-05-02T11:48:14.182Z,94
2019-05-02T11:49:03.543Z,94
2019-05-02T11:50:03.427Z,94.7
2019-05-02T11:51:16.631Z,96.6
2019-05-02T11:52:04.972Z,96.8
2019-05-02T11:53:29.772Z,96.8
2019-05-02T11:55:03.589Z,97
2019-05-02T11:56:13.553Z,97
2019-05-02T11:58:12.720Z,96.8
2019-05-02T11:59:04.062Z,97
2019-05-02T12:00:09.226Z,97
2019-05-02T12:01:05.727Z,97
2019-05-02T12:02:03.847Z,97.5
2019-05-02T12:03:03.899Z,98.2
2019-05-02T12:04:17.157Z,98.2
2019-05-02T12:06:19.955Z,98.9
2019-05-02T12:07:05.236Z,99.4
2019-05-02T12:08:12.474Z,99.6
2019-05-02T12:09:03.696Z,99.6
2019-05-02T12:10:04.948Z,100.1
2019-05-02T12:11:17.545Z,100.1
2019-05-02T12:13:16.376Z,98.9
2019-05-02T12:15:03.255Z,99.1
2019-05-02T12:16:03.556Z,99.1
2019-05-02T12:17:03.593Z,98
2019-05-02T12:18:03.277Z,100.3
2019-05-02T12:19:15.135Z,102.2
2019-05-02T12:20:03.486Z,102.2
2019-05-02T12:21:03.236Z,101.5
2019-05-02T12:22:17.227Z,100.3
2019-05-02T12:23:03.948Z,99.8
2019-05-02T12:24:03.260Z,99.8
2019-05-02T12:25:04.051Z,100.8
2019-05-02T12:26:03.911Z,100.3
2019-05-02T12:27:03.967Z,100.3
2019-05-02T12:28:03.662Z,99.1
2019-05-02T12:29:03.621Z,98.9
2019-05-02T12:30:03.828Z,98.2
2019-05-02T12:31:03.670Z,98.2
2019-05-02T12:32:03.645Z,100.5
2019-05-02T12:33:03.751Z,101.7
2019-05-02T12:34:03.547Z,101.7
2019-05-02T12:35:47.909Z,101
2019-05-02T12:37:03.640Z,101.9
2019-05-02T12:38:03.525Z,101
2019-05-02T12:39:03.404Z,103.1
2019-05-02T12:40:03.097Z,103.1
2019-05-02T12:41:03.293Z,104.3
2019-05-02T12:42:05.555Z,104.3
2019-05-02T12:44:03.012Z,105
2019-05-02T12:45:03.197Z,105.2
2019-05-02T12:46:03.789Z,105
2019-05-02T12:47:03.019Z,105
2019-05-02T12:48:02.990Z,105.7
2019-05-02T12:49:03.264Z,105
2019-05-02T12:50:04.037Z,107.1
2019-05-02T12:51:03.855Z,107.1
2019-05-02T12:52:03.952Z,105.7
2019-05-02T12:53:03.573Z,105.9
2019-05-02T12:54:03.725Z,105.2
2019-05-02T12:55:03.835Z,105.2
2019-05-02T12:56:03.695Z,105.7
2019-05-02T12:57:03.655Z,105.2
2019-05-02T12:58:03.916Z,105.2
2019-05-02T12:59:03.645Z,105
2019-05-02T13:00:03.592Z,104.3
2019-05-02T13:01:03.438Z,102.9
2019-05-02T13:02:03.510Z,102.9
2019-05-02T13:03:03.173Z,99.1
2019-05-02T13:04:03.358Z,98.9
2019-05-02T13:05:03.611Z,99.1
2019-05-02T13:06:03.372Z,99.1
2019-05-02T13:07:03.107Z,100.3
2019-05-02T13:08:03.139Z,98.9
2019-05-02T13:09:03.462Z,100.1
2019-05-02T13:10:03.226Z,100.5
2019-05-02T13:11:07.256Z,100.5
2019-05-02T13:12:03.180Z,100.5
2019-05-02T13:13:03.169Z,100.5
2019-05-02T13:14:04.247Z,101.2
2019-05-02T13:15:03.438Z,101.2
2019-05-02T13:16:04.579Z,102.2
2019-05-02T13:17:06.498Z,103.6
2019-05-02T13:18:03.843Z,103.6
2019-05-02T13:19:06.636Z,104.7
2019-05-02T13:20:05.052Z,104.7
2019-05-02T13:21:03.131Z,104.7
2019-05-02T13:22:03.817Z,104.7
2019-05-02T13:23:03.733Z,105.4
2019-05-02T13:24:16.775Z,105
2019-05-02T13:26:27.382Z,105.9
2019-05-02T13:28:03.374Z,107.1
2019-05-02T13:29:03.416Z,107.1
2019-05-02T13:30:03.742Z,105.9
2019-05-02T13:31:03.232Z,107.5
2019-05-02T13:32:03.238Z,105.2
2019-05-02T13:33:03.379Z,105.2
2019-05-02T13:34:15.124Z,105.2
2019-05-02T13:36:02.924Z,104.5
2019-05-02T13:37:03.300Z,104.5
2019-05-02T13:38:03.127Z,103.6
2019-05-02T13:39:03.994Z,103.6
2019-05-02T13:40:03.815Z,102.9
2019-05-02T13:41:03.735Z,100.8
2019-05-02T13:42:03.900Z,100.8
2019-05-02T13:43:03.590Z,98.4
2019-05-02T13:44:03.571Z,98.4
2019-05-02T13:45:03.511Z,97
2019-05-02T13:46:03.733Z,97
2019-05-02T13:47:03.534Z,98.2
2019-05-02T13:48:03.690Z,97
2019-05-02T13:49:03.713Z,97
2019-05-02T13:50:04.366Z,95.9
2019-05-02T13:51:04.353Z,96.3
2019-05-02T13:52:03.648Z,96.6
2019-05-02T13:53:03.650Z,96.6
2019-05-02T13:54:03.939Z,97
2019-05-02T13:55:03.555Z,97.3
2019-05-02T13:56:03.105Z,97.5
2019-05-02T13:57:03.459Z,97.5
2019-05-02T13:58:03.353Z,97.7
2019-05-02T13:59:03.141Z,98.9
2019-05-02T14:00:03.193Z,98.9
2019-05-02T14:01:03.700Z,98.4
2019-05-02T14:02:03.149Z,99.4
2019-05-02T14:03:03.152Z,100.5